createdAt,value
2022-09-28T00:07:42.212Z,10.52
2022-09-28T00:16:12.128Z,10.50
2022-09-28T00:24:35.224Z,10.48
2022-09-28T00:32:58.441Z,10.48
2022-09-28T00:41:21.474Z,10.48
2022-09-28T00:49:51.165Z,10.46
2022-09-28T00:58:27.614Z,10.39
2022-09-28T01:06:51.528Z,10.25
2022-09-28T01:15:15.756Z,10.14
2022-09-28T01:24:30.221Z,10.11
2022-09-28T01:33:07.381Z,10.07
2022-09-28T01:41:32.083Z,10.05
2022-09-28T01:50:08.552Z,10.04
2022-09-28T01:58:43.789Z,9.93
2022-09-28T02:07:08.994Z,9.91
2022-09-28T02:15:43.211Z,9.94
2022-09-28T02:24:22.657Z,9.95
2022-09-28T02:32:50.716Z,9.94
2022-09-28T02:41:32.487Z,9.91
2022-09-28T02:50:10.795Z,9.84
2022-09-28T02:58:42.931Z,9.73
2022-09-28T03:07:18.597Z,9.66
2022-09-28T03:15:46.437Z,9.63
2022-09-28T03:24:11.608Z,9.63
2022-09-28T03:32:34.609Z,9.63
2022-09-28T03:41:00.006Z,9.59
2022-09-28T03:49:26.542Z,9.62
2022-09-28T03:57:58.465Z,9.69
2022-09-28T04:06:22.471Z,9.74
2022-09-28T04:14:45.865Z,9.76
2022-09-28T04:23:08.939Z,9.74
2022-09-28T04:31:39.203Z,9.73
2022-09-28T04:40:02.223Z,9.71
2022-09-28T04:48:28.049Z,9.72
2022-09-28T04:57:21.127Z,9.72
2022-09-28T05:05:45.317Z,9.71
2022-09-28T05:14:32.825Z,9.68
2022-09-28T05:22:56.022Z,9.69
2022-09-28T05:31:19.389Z,9.67
2022-09-28T05:40:09.166Z,9.61
2022-09-28T05:48:32.142Z,9.55
2022-09-28T05:56:55.275Z,9.57
2022-09-28T06:05:18.645Z,9.56
2022-09-28T06:13:42.244Z,9.51
2022-09-28T06:22:05.393Z,9.41
2022-09-28T06:30:39.225Z,9.32
2022-09-28T06:39:06.482Z,9.30
2022-09-28T06:47:33.390Z,9.27
2022-09-28T06:56:21.339Z,9.27
2022-09-28T07:04:44.822Z,9.28
2022-09-28T07:13:49.810Z,9.28
2022-09-28T07:22:19.894Z,9.59
2022-09-28T07:30:46.855Z,10.46
2022-09-28T07:39:15.059Z,10.81
2022-09-28T07:47:39.059Z,10.63
2022-09-28T07:56:21.087Z,10.59
2022-09-28T08:04:50.908Z,10.81
2022-09-28T08:13:15.506Z,11.56
2022-09-28T08:21:50.872Z,11.97
2022-09-28T08:30:15.055Z,12.07
2022-09-28T08:38:58.191Z,12.36
2022-09-28T08:48:24.061Z,12.76
2022-09-28T08:57:23.014Z,13.18
2022-09-28T09:06:08.951Z,13.43
2022-09-28T09:15:27.020Z,13.49
2022-09-28T09:24:03.852Z,13.76
2022-09-28T09:32:47.629Z,14.04
2022-09-28T09:41:26.387Z,14.03
2022-09-28T09:50:30.113Z,14.09
2022-09-28T09:59:01.667Z,13.77
2022-09-28T10:07:54.103Z,13.41
2022-09-28T10:16:19.953Z,12.96
2022-09-28T10:24:56.899Z,12.77
2022-09-28T10:33:34.870Z,12.73
2022-09-28T10:42:05.132Z,12.81
2022-09-28T10:50:28.574Z,12.77
2022-09-28T10:59:00.602Z,12.86
2022-09-28T11:07:46.739Z,13.04
2022-09-28T11:16:23.119Z,13.02
2022-09-28T11:24:46.552Z,13.18
2022-09-28T11:33:20.683Z,13.43
2022-09-28T11:42:24.426Z,13.97
2022-09-28T11:50:57.787Z,14.09
2022-09-28T11:59:42.764Z,13.87
2022-09-28T12:08:33.276Z,13.71
2022-09-28T12:17:08.194Z,13.45
2022-09-28T12:25:41.303Z,13.19
2022-09-28T12:34:05.690Z,12.90
2022-09-28T12:42:31.865Z,12.85
2022-09-28T12:51:13.652Z,12.87
2022-09-28T13:00:02.340Z,12.54
2022-09-28T13:08:37.406Z,12.32
2022-09-28T13:17:18.848Z,12.14
2022-09-28T13:25:49.694Z,12.17
2022-09-28T13:34:22.644Z,12.30
2022-09-28T13:42:51.078Z,12.43
2022-09-28T13:51:42.307Z,12.51
2022-09-28T14:00:11.124Z,12.69
2022-09-28T14:09:05.243Z,12.74
2022-09-28T14:17:30.581Z,12.70
2022-09-28T14:26:11.426Z,12.70
2022-09-28T14:34:38.480Z,12.69
2022-09-28T14:43:39.227Z,12.86
2022-09-28T14:52:04.158Z,12.87
2022-09-28T15:00:31.941Z,12.77
2022-09-28T15:08:55.246Z,12.75
2022-09-28T15:17:26.532Z,12.70
2022-09-28T15:25:52.569Z,12.57
2022-09-28T15:34:49.691Z,12.55
2022-09-28T15:43:33.006Z,12.44
2022-09-28T15:52:05.568Z,12.25
2022-09-28T16:00:31.946Z,12.03
2022-09-28T16:08:54.869Z,11.82
2022-09-28T16:17:33.679Z,11.68
2022-09-28T16:26:03.169Z,11.58
2022-09-28T16:34:27.344Z,11.40
2022-09-28T16:42:51.341Z,11.05
2022-09-28T16:51:22.597Z,10.88
2022-09-28T16:59:45.467Z,10.78
2022-09-28T17:08:13.515Z,10.65
2022-09-28T17:17:06.218Z,10.51
2022-09-28T17:25:22.860Z,10.35
2022-09-28T17:33:47.443Z,10.32
2022-09-28T17:42:10.845Z,10.35
2022-09-28T17:50:36.339Z,10.29
2022-09-28T17:59:03.434Z,10.19
2022-09-28T18:07:28.927Z,10.14
2022-09-28T18:15:53.365Z,10.15
2022-09-28T18:24:16.759Z,10.07
2022-09-28T18:32:40.609Z,9.92
2022-09-28T18:41:08.607Z,9.86
2022-09-28T18:49:33.741Z,9.87
2022-09-28T18:57:56.875Z,9.85
2022-09-28T19:06:20.248Z,9.88
2022-09-28T19:14:43.724Z,9.99
2022-09-28T19:23:06.735Z,10.00
2022-09-28T19:31:31.379Z,9.84
2022-09-28T19:39:54.322Z,9.71
2022-09-28T19:48:17.278Z,9.61
2022-09-28T19:56:41.581Z,9.56
2022-09-28T20:05:05.407Z,9.40
2022-09-28T20:13:36.735Z,9.27
2022-09-28T20:22:03.272Z,9.28
2022-09-28T20:30:26.891Z,9.47
2022-09-28T20:38:51.948Z,9.52
2022-09-28T20:47:15.518Z,9.42
2022-09-28T20:55:38.921Z,9.48
2022-09-28T21:04:03.805Z,9.51
2022-09-28T21:12:28.985Z,9.42
2022-09-28T21:20:51.908Z,9.33
2022-09-28T21:29:15.766Z,9.21
2022-09-28T21:37:38.818Z,9.03
2022-09-28T21:46:03.134Z,8.80
2022-09-28T21:54:26.239Z,8.46
2022-09-28T22:02:51.160Z,8.14
2022-09-28T22:11:20.356Z,7.98
2022-09-28T22:19:45.458Z,7.88
2022-09-28T22:28:08.694Z,7.83
2022-09-28T22:36:32.571Z,7.81
2022-09-28T22:44:55.477Z,7.87
2022-09-28T22:53:19.420Z,7.98
2022-09-28T23:01:42.412Z,8.13
2022-09-28T23:10:06.825Z,8.12
2022-09-28T23:18:32.934Z,8.16
2022-09-28T23:26:56.175Z,8.21
2022-09-28T23:35:19.594Z,8.28
2022-09-28T23:43:42.508Z,8.29
2022-09-28T23:52:05.425Z,8.29
